Time;durP1;ratioP1;P1;durP2;ratioP2;P2;SDS_P1;SDS_P2;PMS_P1;PMS_P2;Temp;Humidity;BMP_temperature;BMP_pressure;BME280_temperature;BME280_humidity;BME280_pressure;Samples;Min_cycle;Max_cycle;Signal;HPM_P1;HPM_P2
2023/06/10 00:00:15;;;;;;;0.37;0.37;;;;;;;;;;5096159;28;20189;-87
2023/06/10 00:02:42;;;;;;;0.33;0.33;;;;;;;;;;5077106;28;20194;-88
2023/06/10 00:05:09;;;;;;;0.30;0.30;;;;;;;;;;5074547;28;20214;-87
2023/06/10 00:07:40;;;;;;;0.40;0.40;;;;;;;;;;5074206;28;20175;-88
2023/06/10 00:10:07;;;;;;;0.30;0.30;;;;;;;;;;5074243;28;20193;-88
2023/06/10 00:12:36;;;;;;;0.40;0.40;;;;;;;;;;5073723;28;20730;-87
2023/06/10 00:15:04;;;;;;;0.33;0.33;;;;;;;;;;5074821;28;20217;-88
2023/06/10 00:17:30;;;;;;;0.33;0.33;;;;;;;;;;5074303;28;20187;-88
2023/06/10 00:19:57;;;;;;;0.30;0.30;;;;;;;;;;5073978;28;20178;-88
2023/06/10 00:22:24;;;;;;;0.40;0.40;;;;;;;;;;5074069;28;20199;-88
2023/06/10 00:24:50;;;;;;;0.33;0.33;;;;;;;;;;5073567;28;20214;-88
2023/06/10 00:27:16;;;;;;;0.40;0.40;;;;;;;;;;5073998;28;20580;-88
2023/06/10 00:29:42;;;;;;;0.30;0.30;;;;;;;;;;5076146;28;20181;-88
2023/06/10 00:32:09;;;;;;;0.40;0.40;;;;;;;;;;5094360;28;20178;-90
2023/06/10 00:34:35;;;;;;;0.40;0.40;;;;;;;;;;5096827;28;20179;-89
2023/06/10 00:37:01;;;;;;;0.40;0.40;;;;;;;;;;5087159;28;20186;-88
2023/06/10 00:39:27;;;;;;;0.60;0.60;;;;;;;;;;5073691;28;20179;-88
2023/06/10 00:41:53;;;;;;;0.40;0.40;;;;;;;;;;5073489;28;20277;-88
2023/06/10 00:44:19;;;;;;;0.40;0.40;;;;;;;;;;5072818;28;20289;-88
2023/06/10 00:46:45;;;;;;;0.40;0.40;;;;;;;;;;5073747;28;20174;-88
2023/06/10 00:49:12;;;;;;;0.40;0.40;;;;;;;;;;5073428;28;20527;-88
2023/06/10 00:51:39;;;;;;;0.30;0.30;;;;;;;;;;5073533;28;20558;-88
2023/06/10 00:54:05;;;;;;;0.40;0.40;;;;;;;;;;5073169;28;20199;-88
2023/06/10 00:56:32;;;;;;;0.37;0.37;;;;;;;;;;5073503;28;20198;-89
2023/06/10 00:58:58;;;;;;;0.40;0.40;;;;;;;;;;5073211;28;20193;-89
2023/06/10 01:01:25;;;;;;;0.30;0.30;;;;;;;;;;5073399;28;20175;-88
2023/06/10 01:03:51;;;;;;;0.33;0.33;;;;;;;;;;5072863;28;20194;-88
2023/06/10 01:06:24;;;;;;;0.40;0.40;;;;;;;;;;5073555;28;20214;-88
2023/06/10 01:09:01;;;;;;;0.40;0.40;;;;;;;;;;5073415;28;20174;-88
2023/06/10 01:11:35;;;;;;;0.40;0.40;;;;;;;;;;5073472;28;20185;-88
2023/06/10 01:14:01;;;;;;;0.40;0.40;;;;;;;;;;5074174;28;20190;-88
2023/06/10 01:16:28;;;;;;;0.30;0.30;;;;;;;;;;5074060;28;20595;-88
2023/06/10 01:18:54;;;;;;;0.50;0.50;;;;;;;;;;5076228;28;20230;-88
2023/06/10 01:21:24;;;;;;;0.43;0.43;;;;;;;;;;5079633;28;20171;-88
2023/06/10 01:23:50;;;;;;;0.50;0.50;;;;;;;;;;5091805;28;20241;-89
2023/06/10 01:26:16;;;;;;;0.50;0.50;;;;;;;;;;5096748;28;20214;-88
2023/06/10 01:28:56;;;;;;;0.40;0.40;;;;;;;;;;5087049;28;20266;-88
2023/06/10 01:31:41;;;;;;;0.30;0.30;;;;;;;;;;5076510;28;20215;-88
2023/06/10 01:34:11;;;;;;;0.30;0.30;;;;;;;;;;5084195;28;20578;-88
2023/06/10 01:36:38;;;;;;;0.40;0.40;;;;;;;;;;5097491;28;20178;-88
2023/06/10 01:39:05;;;;;;;0.40;0.40;;;;;;;;;;5097316;28;20183;-89
2023/06/10 01:41:32;;;;;;;0.37;0.37;;;;;;;;;;5097349;28;20185;-88
2023/06/10 01:43:58;;;;;;;0.50;0.50;;;;;;;;;;5096054;28;20257;-87
2023/06/10 01:46:24;;;;;;;0.40;0.40;;;;;;;;;;5097121;28;20202;-88
2023/06/10 01:48:50;;;;;;;0.40;0.40;;;;;;;;;;5097348;28;20194;-88
2023/06/10 01:51:16;;;;;;;0.47;0.47;;;;;;;;;;5094874;28;20170;-89
2023/06/10 01:53:42;;;;;;;0.40;0.40;;;;;;;;;;5091084;28;20198;-88
2023/06/10 01:56:08;;;;;;;0.40;0.40;;;;;;;;;;5082116;28;20232;-87
2023/06/10 01:58:34;;;;;;;0.50;0.50;;;;;;;;;;5081391;28;20183;-87
2023/06/10 02:01:00;;;;;;;0.43;0.43;;;;;;;;;;5080549;28;20194;-88
2023/06/10 02:03:26;;;;;;;0.40;0.40;;;;;;;;;;5082861;28;20198;-88
2023/06/10 02:05:53;;;;;;;0.50;0.50;;;;;;;;;;5082204;28;20210;-86
2023/06/10 02:08:18;;;;;;;0.40;0.40;;;;;;;;;;5080103;28;20189;-86
2023/06/10 02:10:45;;;;;;;0.50;0.50;;;;;;;;;;5077402;28;20268;-86
2023/06/10 02:13:11;;;;;;;0.50;0.50;;;;;;;;;;5076020;28;20282;-86
2023/06/10 02:15:36;;;;;;;0.40;0.40;;;;;;;;;;5076350;28;20617;-88
2023/06/10 02:18:02;;;;;;;0.50;0.50;;;;;;;;;;5076190;28;20181;-88
2023/06/10 02:20:28;;;;;;;0.40;0.40;;;;;;;;;;5076064;28;20178;-88
2023/06/10 02:22:54;;;;;;;0.40;0.40;;;;;;;;;;5076056;28;20244;-89
2023/06/10 02:25:20;;;;;;;0.50;0.50;;;;;;;;;;5076001;28;20213;-88
2023/06/10 02:27:46;;;;;;;0.50;0.50;;;;;;;;;;5076209;28;20546;-88
2023/06/10 02:30:13;;;;;;;0.40;0.40;;;;;;;;;;5075941;28;20179;-88
2023/06/10 02:32:40;;;;;;;0.60;0.60;;;;;;;;;;5075433;28;20210;-85
2023/06/10 02:35:07;;;;;;;0.50;0.50;;;;;;;;;;5075780;28;20174;-85
2023/06/10 02:37:33;;;;;;;0.40;0.40;;;;;;;;;;5075921;28;20266;-85
2023/06/10 02:39:59;;;;;;;0.50;0.50;;;;;;;;;;5075781;28;20667;-85
2023/06/10 02:42:25;;;;;;;0.40;0.40;;;;;;;;;;5075216;28;20194;-85
2023/06/10 02:44:51;;;;;;;0.60;0.60;;;;;;;;;;5075471;28;20712;-86
2023/06/10 02:47:16;;;;;;;0.40;0.40;;;;;;;;;;5075634;28;20178;-85
2023/06/10 02:49:42;;;;;;;0.40;0.40;;;;;;;;;;5075664;28;20585;-86
2023/06/10 02:52:08;;;;;;;0.50;0.50;;;;;;;;;;5075314;28;20178;-85
2023/06/10 02:54:35;;;;;;;0.40;0.40;;;;;;;;;;5075824;28;20178;-86
2023/06/10 02:57:01;;;;;;;0.50;0.50;;;;;;;;;;5075594;28;20185;-87
2023/06/10 02:59:28;;;;;;;0.60;0.60;;;;;;;;;;5075530;28;20174;-87
2023/06/10 03:01:54;;;;;;;0.53;0.53;;;;;;;;;;5075619;28;20624;-87
2023/06/10 03:04:20;;;;;;;0.40;0.40;;;;;;;;;;5075427;28;20185;-87
2023/06/10 03:06:46;;;;;;;0.40;0.40;;;;;;;;;;5076095;28;20231;-87
2023/06/10 03:09:13;;;;;;;0.50;0.50;;;;;;;;;;5094097;28;20192;-87
2023/06/10 03:11:39;;;;;;;0.43;0.43;;;;;;;;;;5099625;28;20217;-88
2023/06/10 03:14:05;;;;;;;0.40;0.40;;;;;;;;;;5089182;28;20276;-87
2023/06/10 03:16:31;;;;;;;0.43;0.43;;;;;;;;;;5099007;28;20174;-88
2023/06/10 03:18:57;;;;;;;0.40;0.40;;;;;;;;;;5097967;28;20151;-87
2023/06/10 03:21:23;;;;;;;0.43;0.43;;;;;;;;;;5075800;28;20186;-87
2023/06/10 03:23:49;;;;;;;0.50;0.50;;;;;;;;;;5074780;28;20206;-87
2023/06/10 03:26:16;;;;;;;0.40;0.40;;;;;;;;;;5074967;28;20221;-87
2023/06/10 03:28:42;;;;;;;0.40;0.40;;;;;;;;;;5075335;28;20583;-87
2023/06/10 03:31:08;;;;;;;0.50;0.50;;;;;;;;;;5074997;28;20236;-87
2023/06/10 03:33:35;;;;;;;0.40;0.40;;;;;;;;;;5073800;28;20218;-87
2023/06/10 03:36:01;;;;;;;0.43;0.43;;;;;;;;;;5074917;28;20235;-87
2023/06/10 03:38:27;;;;;;;0.43;0.43;;;;;;;;;;5074586;28;20181;-87
2023/06/10 03:40:53;;;;;;;0.50;0.50;;;;;;;;;;5074570;28;20174;-87
2023/06/10 03:43:20;;;;;;;0.50;0.50;;;;;;;;;;5073912;28;20564;-87
2023/06/10 03:45:46;;;;;;;0.50;0.50;;;;;;;;;;5074339;28;20568;-87
2023/06/10 03:48:12;;;;;;;0.50;0.50;;;;;;;;;;5074578;28;20174;-87
2023/06/10 03:50:38;;;;;;;0.50;0.50;;;;;;;;;;5074447;28;20182;-87
2023/06/10 03:53:04;;;;;;;0.50;0.50;;;;;;;;;;5073722;28;20240;-87
2023/06/10 03:55:31;;;;;;;0.50;0.50;;;;;;;;;;5074402;28;20193;-87
2023/06/10 03:57:57;;;;;;;0.50;0.50;;;;;;;;;;5074042;28;20181;-87
2023/06/10 04:00:23;;;;;;;0.50;0.50;;;;;;;;;;5074438;28;20178;-87
2023/06/10 04:02:51;;;;;;;0.50;0.50;;;;;;;;;;5073900;28;20194;-87
2023/06/10 04:05:17;;;;;;;0.40;0.40;;;;;;;;;;5074016;28;20241;-87
2023/06/10 04:07:44;;;;;;;0.40;0.40;;;;;;;;;;5074055;28;20629;-87
2023/06/10 04:10:10;;;;;;;0.50;0.50;;;;;;;;;;5073928;28;20547;-87
2023/06/10 04:12:36;;;;;;;0.40;0.40;;;;;;;;;;5073839;28;20203;-87
2023/06/10 04:15:03;;;;;;;0.50;0.50;;;;;;;;;;5074010;28;20194;-86
2023/06/10 04:17:29;;;;;;;0.40;0.40;;;;;;;;;;5074639;28;20240;-87
2023/06/10 04:19:55;;;;;;;0.50;0.50;;;;;;;;;;5074281;28;20179;-87
2023/06/10 04:22:22;;;;;;;0.60;0.60;;;;;;;;;;5073752;28;20209;-87
2023/06/10 04:24:48;;;;;;;0.60;0.60;;;;;;;;;;5072402;28;20747;-87
2023/06/10 04:27:14;;;;;;;0.33;0.33;;;;;;;;;;5073719;28;20265;-87
2023/06/10 04:29:40;;;;;;;0.43;0.43;;;;;;;;;;5074133;28;20179;-87
2023/06/10 04:32:06;;;;;;;0.30;0.30;;;;;;;;;;5073122;28;20246;-87
2023/06/10 04:34:36;;;;;;;0.40;0.40;;;;;;;;;;5073822;28;20198;-88
2023/06/10 04:37:02;;;;;;;0.50;0.50;;;;;;;;;;5095273;28;20167;-87
2023/06/10 04:39:28;;;;;;;0.47;0.47;;;;;;;;;;5096903;28;20167;-88
2023/06/10 04:41:55;;;;;;;0.60;0.60;;;;;;;;;;5075597;28;20629;-88
2023/06/10 04:44:21;;;;;;;0.50;0.50;;;;;;;;;;5073357;28;20270;-87
2023/06/10 04:46:47;;;;;;;0.60;0.60;;;;;;;;;;5073556;28;20261;-87
2023/06/10 04:49:16;;;;;;;0.40;0.40;;;;;;;;;;5073206;28;20273;-87
2023/06/10 04:51:42;;;;;;;0.50;0.50;;;;;;;;;;5056127;28;20261;-88
2023/06/10 04:54:08;;;;;;;0.40;0.40;;;;;;;;;;5074853;28;20217;-87
2023/06/10 04:56:34;;;;;;;0.40;0.40;;;;;;;;;;5087434;28;20166;-89
2023/06/10 04:59:00;;;;;;;0.33;0.33;;;;;;;;;;5097640;28;20190;-87
2023/06/10 05:01:27;;;;;;;0.40;0.40;;;;;;;;;;5097886;28;20163;-89
2023/06/10 05:03:53;;;;;;;0.30;0.30;;;;;;;;;;5090381;28;20190;-87
2023/06/10 05:06:19;;;;;;;0.50;0.50;;;;;;;;;;5073357;28;20587;-87
2023/06/10 05:08:45;;;;;;;0.40;0.40;;;;;;;;;;5073316;28;20182;-87
2023/06/10 05:11:11;;;;;;;0.40;0.40;;;;;;;;;;5073030;28;20272;-87
2023/06/10 05:13:37;;;;;;;0.33;0.33;;;;;;;;;;5072604;28;20251;-87
2023/06/10 05:16:03;;;;;;;0.40;0.40;;;;;;;;;;5073159;28;20213;-87
2023/06/10 05:18:29;;;;;;;0.47;0.47;;;;;;;;;;5073052;28;20182;-87
2023/06/10 05:20:55;;;;;;;0.43;0.43;;;;;;;;;;5072960;28;20196;-87
2023/06/10 05:23:21;;;;;;;0.30;0.30;;;;;;;;;;5072622;28;20301;-87
2023/06/10 05:25:47;;;;;;;0.50;0.50;;;;;;;;;;5074159;28;20324;-86
2023/06/10 05:28:13;;;;;;;0.40;0.40;;;;;;;;;;5078693;28;20202;-88
2023/06/10 05:30:39;;;;;;;0.40;0.40;;;;;;;;;;5096356;28;20186;-87
2023/06/10 05:33:05;;;;;;;0.40;0.40;;;;;;;;;;5096694;28;20182;-87
2023/06/10 05:35:31;;;;;;;0.40;0.40;;;;;;;;;;5088669;28;20183;-87
2023/06/10 05:37:57;;;;;;;0.40;0.40;;;;;;;;;;5073060;28;20182;-86
2023/06/10 05:40:23;;;;;;;0.40;0.40;;;;;;;;;;5073318;28;20174;-86
2023/06/10 05:42:50;;;;;;;0.40;0.40;;;;;;;;;;5072690;28;20209;-87
2023/06/10 05:45:16;;;;;;;0.40;0.40;;;;;;;;;;5072607;28;20248;-87
2023/06/10 05:47:42;;;;;;;0.40;0.40;;;;;;;;;;5074920;28;20546;-87
2023/06/10 05:50:08;;;;;;;0.40;0.40;;;;;;;;;;5081982;28;20181;-87
2023/06/10 05:52:35;;;;;;;0.40;0.40;;;;;;;;;;5072891;28;20197;-87
2023/06/10 05:55:02;;;;;;;0.30;0.30;;;;;;;;;;5075589;28;20182;-87
2023/06/10 05:57:27;;;;;;;0.50;0.50;;;;;;;;;;5076380;28;20186;-89
2023/06/10 05:59:53;;;;;;;0.40;0.40;;;;;;;;;;5097984;28;20175;-89
2023/06/10 06:02:19;;;;;;;0.57;0.57;;;;;;;;;;5095477;28;20190;-89
2023/06/10 06:04:45;;;;;;;0.40;0.40;;;;;;;;;;5082370;28;20206;-88
2023/06/10 06:07:11;;;;;;;0.30;0.30;;;;;;;;;;5073044;28;20548;-88
2023/06/10 06:09:37;;;;;;;0.40;0.40;;;;;;;;;;5073596;28;20178;-88
2023/06/10 06:12:04;;;;;;;0.40;0.40;;;;;;;;;;5071922;28;20178;-88
2023/06/10 06:14:32;;;;;;;0.50;0.50;;;;;;;;;;5075629;28;20265;-88
2023/06/10 06:16:58;;;;;;;0.30;0.30;;;;;;;;;;5073157;28;20214;-88
2023/06/10 06:19:24;;;;;;;0.40;0.40;;;;;;;;;;5073718;28;20519;-89
2023/06/10 06:21:50;;;;;;;0.40;0.40;;;;;;;;;;5073597;28;20183;-88
2023/06/10 06:24:16;;;;;;;0.30;0.30;;;;;;;;;;5076647;28;20212;-88
2023/06/10 06:26:42;;;;;;;0.53;0.53;;;;;;;;;;5085990;28;20214;-89
2023/06/10 06:29:09;;;;;;;0.47;0.47;;;;;;;;;;5089373;28;20182;-87
2023/06/10 06:31:34;;;;;;;0.50;0.50;;;;;;;;;;5074406;28;20189;-87
2023/06/10 06:34:01;;;;;;;0.40;0.40;;;;;;;;;;5093631;28;20203;-89
2023/06/10 06:36:26;;;;;;;0.30;0.30;;;;;;;;;;5096289;28;20289;-91
2023/06/10 06:38:52;;;;;;;0.40;0.40;;;;;;;;;;5096816;28;20178;-87
2023/06/10 06:41:19;;;;;;;0.47;0.47;;;;;;;;;;5094372;28;20167;-88
2023/06/10 06:43:45;;;;;;;0.40;0.40;;;;;;;;;;5096899;28;20191;-87
2023/06/10 06:46:11;;;;;;;0.30;0.30;;;;;;;;;;5097738;28;20202;-88
2023/06/10 06:48:37;;;;;;;0.30;0.30;;;;;;;;;;5097916;28;20185;-87
2023/06/10 06:51:03;;;;;;;0.40;0.40;;;;;;;;;;5088665;28;20174;-88
2023/06/10 06:53:29;;;;;;;0.40;0.40;;;;;;;;;;5099886;28;20417;-87
2023/06/10 06:55:55;;;;;;;0.30;0.30;;;;;;;;;;5100544;28;20183;-87
2023/06/10 06:58:21;;;;;;;0.30;0.30;;;;;;;;;;5100472;28;20175;-88
2023/06/10 07:00:47;;;;;;;0.30;0.30;;;;;;;;;;5100536;28;20151;-87
2023/06/10 07:03:13;;;;;;;0.30;0.30;;;;;;;;;;5099865;28;20182;-88
2023/06/10 07:05:39;;;;;;;0.30;0.30;;;;;;;;;;5100162;28;20198;-88
2023/06/10 07:08:05;;;;;;;0.30;0.30;;;;;;;;;;5100253;28;20260;-89
2023/06/10 07:10:31;;;;;;;0.30;0.30;;;;;;;;;;5096281;28;20169;-87
2023/06/10 07:12:57;;;;;;;0.40;0.40;;;;;;;;;;5099364;28;20178;-88
2023/06/10 07:15:23;;;;;;;0.30;0.30;;;;;;;;;;5099606;28;20189;-88
2023/06/10 07:17:49;;;;;;;0.30;0.30;;;;;;;;;;5099759;28;20181;-88
2023/06/10 07:20:15;;;;;;;0.30;0.30;;;;;;;;;;5099986;28;20625;-89
2023/06/10 07:22:41;;;;;;;0.20;0.20;;;;;;;;;;5098520;28;20187;-88
2023/06/10 07:25:08;;;;;;;0.30;0.30;;;;;;;;;;5098289;28;20222;-87
2023/06/10 07:27:35;;;;;;;0.20;0.20;;;;;;;;;;5099209;28;20183;-87
2023/06/10 07:30:02;;;;;;;0.40;0.40;;;;;;;;;;5098870;28;20159;-89
2023/06/10 07:32:27;;;;;;;0.27;0.27;;;;;;;;;;5099287;28;20179;-89
2023/06/10 07:34:54;;;;;;;0.30;0.30;;;;;;;;;;5099540;28;20233;-89
2023/06/10 07:37:20;;;;;;;0.20;0.20;;;;;;;;;;5099596;28;20174;-87
2023/06/10 07:39:45;;;;;;;0.20;0.20;;;;;;;;;;5099612;28;20163;-89
2023/06/10 07:42:11;;;;;;;0.37;0.37;;;;;;;;;;5098970;28;20183;-88
2023/06/10 07:44:37;;;;;;;0.30;0.30;;;;;;;;;;5099322;28;20198;-88
2023/06/10 07:47:04;;;;;;;0.33;0.33;;;;;;;;;;5098301;28;20170;-87
2023/06/10 07:49:30;;;;;;;0.37;0.37;;;;;;;;;;5097970;28;20174;-86
2023/06/10 07:51:56;;;;;;;0.30;0.30;;;;;;;;;;5099295;28;20170;-87
2023/06/10 07:54:22;;;;;;;0.20;0.20;;;;;;;;;;5099187;28;20178;-85
2023/06/10 07:56:48;;;;;;;0.50;0.50;;;;;;;;;;5098515;28;20179;-86
2023/06/10 07:59:14;;;;;;;0.30;0.30;;;;;;;;;;5096544;28;20187;-87
2023/06/10 08:01:42;;;;;;;0.40;0.40;;;;;;;;;;5097230;28;20222;-87
2023/06/10 08:04:08;;;;;;;0.27;0.27;;;;;;;;;;5089666;28;20266;-87
2023/06/10 08:06:34;;;;;;;0.40;0.40;;;;;;;;;;5088637;28;20233;-88
2023/06/10 08:09:00;;;;;;;0.30;0.30;;;;;;;;;;5083485;28;20170;-88
2023/06/10 08:11:28;;;;;;;0.33;0.33;;;;;;;;;;5081474;28;20192;-88
2023/06/10 08:13:54;;;;;;;0.30;0.30;;;;;;;;;;5082336;28;20195;-88
2023/06/10 08:16:20;;;;;;;0.33;0.33;;;;;;;;;;5079529;28;20598;-88
2023/06/10 08:18:46;;;;;;;0.33;0.33;;;;;;;;;;5096940;28;20243;-88
2023/06/10 08:21:12;;;;;;;0.40;0.40;;;;;;;;;;5090318;28;20543;-89
2023/06/10 08:23:39;;;;;;;0.43;0.43;;;;;;;;;;5074025;28;20255;-90
2023/06/10 08:26:04;;;;;;;0.40;0.40;;;;;;;;;;5073868;28;20210;-88
2023/06/10 08:28:30;;;;;;;0.37;0.37;;;;;;;;;;5074064;28;20534;-89
2023/06/10 08:30:56;;;;;;;0.30;0.30;;;;;;;;;;5073682;28;20182;-89
2023/06/10 08:33:22;;;;;;;0.50;0.50;;;;;;;;;;5073000;28;20664;-89
2023/06/10 08:35:48;;;;;;;0.43;0.43;;;;;;;;;;5075451;28;20266;-89
2023/06/10 08:38:16;;;;;;;0.40;0.40;;;;;;;;;;5073367;28;20173;-90
2023/06/10 08:40:41;;;;;;;0.40;0.40;;;;;;;;;;5055605;28;20632;-89
2023/06/10 08:43:08;;;;;;;0.40;0.40;;;;;;;;;;5074055;28;20213;-88
2023/06/10 08:45:38;;;;;;;0.30;0.30;;;;;;;;;;5092297;28;20206;-88
2023/06/10 08:48:07;;;;;;;0.53;0.53;;;;;;;;;;5097766;28;20200;-89
2023/06/10 08:50:36;;;;;;;0.40;0.40;;;;;;;;;;5075447;28;20261;-89
2023/06/10 08:53:02;;;;;;;0.40;0.40;;;;;;;;;;5073924;28;20269;-88
2023/06/10 08:55:51;;;;;;;0.43;0.43;;;;;;;;;;5073702;28;20694;-90
2023/06/10 08:58:17;;;;;;;0.40;0.40;;;;;;;;;;5074619;28;20170;-89
2023/06/10 09:00:43;;;;;;;0.30;0.30;;;;;;;;;;5073905;28;20612;-90
2023/06/10 09:03:09;;;;;;;0.50;0.50;;;;;;;;;;5094299;28;20194;-88
2023/06/10 09:05:38;;;;;;;0.43;0.43;;;;;;;;;;5087510;28;20308;-89
2023/06/10 09:08:06;;;;;;;0.33;0.33;;;;;;;;;;5074398;28;20175;-90
2023/06/10 09:10:33;;;;;;;0.33;0.33;;;;;;;;;;5075872;28;20308;-90
2023/06/10 09:12:59;;;;;;;0.40;0.40;;;;;;;;;;5073728;28;20621;-90
2023/06/10 09:15:25;;;;;;;0.43;0.43;;;;;;;;;;5073459;28;20488;-90
2023/06/10 09:17:51;;;;;;;0.50;0.50;;;;;;;;;;5073233;28;20559;-90
2023/06/10 09:20:17;;;;;;;0.33;0.33;;;;;;;;;;5073357;28;20174;-90
2023/06/10 09:22:43;;;;;;;0.50;0.50;;;;;;;;;;5072718;28;20225;-90
2023/06/10 09:25:10;;;;;;;0.50;0.50;;;;;;;;;;5082039;28;20738;-90
2023/06/10 09:27:50;;;;;;;0.60;0.60;;;;;;;;;;5091747;28;20189;-89
2023/06/10 09:30:26;;;;;;;0.50;0.50;;;;;;;;;;5093919;28;20173;-90
2023/06/10 09:32:53;;;;;;;0.50;0.50;;;;;;;;;;5092465;28;20619;-90
2023/06/10 09:35:19;;;;;;;0.50;0.50;;;;;;;;;;5093065;28;20577;-89
2023/06/10 09:37:45;;;;;;;0.50;0.50;;;;;;;;;;5095933;28;20702;-90
2023/06/10 09:40:12;;;;;;;0.50;0.50;;;;;;;;;;5098481;28;20174;-89
2023/06/10 09:42:38;;;;;;;0.40;0.40;;;;;;;;;;5110606;28;20193;-89
2023/06/10 09:45:05;;;;;;;0.50;0.50;;;;;;;;;;5116902;28;20256;-90
2023/06/10 09:47:31;;;;;;;0.40;0.40;;;;;;;;;;5112005;28;20647;-89
2023/06/10 09:49:57;;;;;;;0.60;0.60;;;;;;;;;;5093604;28;20189;-88
2023/06/10 09:52:24;;;;;;;0.40;0.40;;;;;;;;;;5092078;28;20202;-89
2023/06/10 09:54:51;;;;;;;0.47;0.47;;;;;;;;;;5092917;28;20183;-88
2023/06/10 09:57:17;;;;;;;0.40;0.40;;;;;;;;;;5093346;28;20184;-89
2023/06/10 09:59:45;;;;;;;0.60;0.60;;;;;;;;;;5094083;28;20184;-90
2023/06/10 10:02:15;;;;;;;0.50;0.50;;;;;;;;;;5097964;28;20675;-90
2023/06/10 10:04:41;;;;;;;0.40;0.40;;;;;;;;;;5113285;28;20213;-88
2023/06/10 10:07:08;;;;;;;0.40;0.40;;;;;;;;;;5116605;28;20225;-89
2023/06/10 10:09:34;;;;;;;0.50;0.50;;;;;;;;;;5116873;28;20174;-89
2023/06/10 10:12:02;;;;;;;0.40;0.40;;;;;;;;;;5099724;28;20251;-90
2023/06/10 10:14:29;;;;;;;0.50;0.50;;;;;;;;;;5092827;28;20182;-88
2023/06/10 10:16:56;;;;;;;0.37;0.37;;;;;;;;;;5092317;28;20185;-88
2023/06/10 10:19:24;;;;;;;0.37;0.37;;;;;;;;;;5092231;28;20594;-90
2023/06/10 10:21:53;;;;;;;0.60;0.60;;;;;;;;;;5092285;28;20173;-89
2023/06/10 10:24:21;;;;;;;0.50;0.50;;;;;;;;;;5095843;28;20269;-90
2023/06/10 10:26:48;;;;;;;0.40;0.40;;;;;;;;;;5096273;28;20723;-88
2023/06/10 10:29:24;;;;;;;0.37;0.37;;;;;;;;;;5095965;28;20166;-88
2023/06/10 10:31:54;;;;;;;0.50;0.50;;;;;;;;;;5095926;28;20182;-89
2023/06/10 10:34:25;;;;;;;0.37;0.37;;;;;;;;;;5096147;28;20184;-88
2023/06/10 10:36:52;;;;;;;0.40;0.40;;;;;;;;;;5096531;28;20174;-89
2023/06/10 10:39:18;;;;;;;0.33;0.33;;;;;;;;;;5096105;28;20577;-89
2023/06/10 10:41:44;;;;;;;0.40;0.40;;;;;;;;;;5096067;28;20222;-89
2023/06/10 10:44:11;;;;;;;0.40;0.40;;;;;;;;;;5095278;28;20718;-89
2023/06/10 10:46:51;;;;;;;0.60;0.60;;;;;;;;;;5096380;28;20218;-88
2023/06/10 10:49:18;;;;;;;0.50;0.50;;;;;;;;;;5096037;28;20178;-88
2023/06/10 10:52:00;;;;;;;0.57;0.57;;;;;;;;;;5096120;28;20185;-89
2023/06/10 10:54:30;;;;;;;0.47;0.47;;;;;;;;;;5095706;28;20584;-88
2023/06/10 10:57:12;;;;;;;0.60;0.60;;;;;;;;;;5077173;28;20251;-88
2023/06/10 10:59:47;;;;;;;0.40;0.40;;;;;;;;;;5097597;28;20178;-89
2023/06/10 11:02:18;;;;;;;0.47;0.47;;;;;;;;;;5095564;28;20201;-89
2023/06/10 11:04:47;;;;;;;0.37;0.37;;;;;;;;;;5096046;28;20247;-88
2023/06/10 11:07:16;;;;;;;0.37;0.37;;;;;;;;;;5096100;28;20170;-87
2023/06/10 11:10:01;;;;;;;0.50;0.50;;;;;;;;;;5104693;28;20168;-88
2023/06/10 11:12:39;;;;;;;0.50;0.50;;;;;;;;;;5118034;28;20228;-88
2023/06/10 11:15:05;;;;;;;0.40;0.40;;;;;;;;;;5097850;28;20177;-88
2023/06/10 11:17:31;;;;;;;0.50;0.50;;;;;;;;;;5095851;28;20186;-88
2023/06/10 11:19:59;;;;;;;0.53;0.53;;;;;;;;;;5095348;28;20264;-90
2023/06/10 11:22:25;;;;;;;0.40;0.40;;;;;;;;;;5095633;28;20909;-89
2023/06/10 11:24:51;;;;;;;0.35;0.35;;;;;;;;;;5103735;28;20217;-90
2023/06/10 11:27:24;;;;;;;0.50;0.50;;;;;;;;;;5114771;28;20174;-89
2023/06/10 11:30:05;;;;;;;0.60;0.60;;;;;;;;;;5112853;28;20177;-88
2023/06/10 11:32:32;;;;;;;0.70;0.70;;;;;;;;;;5096164;28;20228;-89
2023/06/10 11:34:58;;;;;;;0.50;0.50;;;;;;;;;;5094868;28;20174;-89
2023/06/10 11:37:24;;;;;;;0.50;0.50;;;;;;;;;;5095311;28;20672;-89
2023/06/10 11:39:54;;;;;;;0.50;0.50;;;;;;;;;;5095713;28;20178;-90
2023/06/10 11:42:20;;;;;;;0.60;0.60;;;;;;;;;;5095025;28;20212;-89
2023/06/10 11:44:53;;;;;;;0.50;0.50;;;;;;;;;;5080875;28;20293;-91
2023/06/10 11:47:20;;;;;;;0.50;0.50;;;;;;;;;;5074950;28;20629;-89
2023/06/10 11:49:46;;;;;;;0.40;0.40;;;;;;;;;;5058047;28;20174;-89
2023/06/10 11:52:12;;;;;;;0.40;0.40;;;;;;;;;;5073912;28;20202;-90
2023/06/10 11:54:39;;;;;;;0.40;0.40;;;;;;;;;;5074648;28;20183;-90
2023/06/10 11:57:05;;;;;;;0.40;0.40;;;;;;;;;;5075141;28;20166;-89
2023/06/10 11:59:31;;;;;;;0.40;0.40;;;;;;;;;;5075274;28;20170;-90
2023/06/10 12:01:57;;;;;;;0.40;0.40;;;;;;;;;;5074816;28;20174;-89
2023/06/10 12:04:23;;;;;;;0.70;0.70;;;;;;;;;;5074605;28;20179;-90
2023/06/10 12:06:50;;;;;;;0.40;0.40;;;;;;;;;;5075098;28;20522;-90
2023/06/10 12:09:16;;;;;;;0.50;0.50;;;;;;;;;;5076034;28;20194;-91
2023/06/10 12:11:43;;;;;;;0.50;0.50;;;;;;;;;;5095502;28;20167;-89
2023/06/10 12:14:09;;;;;;;0.50;0.50;;;;;;;;;;5102913;22;20243;31
2023/06/10 12:16:35;;;;;;;0.60;0.60;;;;;;;;;;5051946;28;20308;-90
2023/06/10 12:19:03;;;;;;;0.50;0.50;;;;;;;;;;5053709;28;20278;-90
2023/06/10 12:21:29;;;;;;;0.50;0.50;;;;;;;;;;5053917;28;20179;-90
2023/06/10 12:24:05;;;;;;;0.43;0.43;;;;;;;;;;5053079;28;20194;-90
2023/06/10 12:26:36;;;;;;;0.43;0.43;;;;;;;;;;5053280;28;20210;-91
2023/06/10 12:29:02;;;;;;;0.50;0.50;;;;;;;;;;5053385;28;20715;-90
2023/06/10 12:31:28;;;;;;;0.40;0.40;;;;;;;;;;5036136;28;20183;-89
2023/06/10 12:34:09;;;;;;;0.50;0.50;;;;;;;;;;5053540;28;20219;-88
2023/06/10 12:36:36;;;;;;;0.60;0.60;;;;;;;;;;5053958;28;20185;-88
2023/06/10 12:39:05;;;;;;;0.60;0.60;;;;;;;;;;5053686;28;20590;-88
2023/06/10 12:41:31;;;;;;;0.60;0.60;;;;;;;;;;5062435;28;20182;-90
2023/06/10 12:43:58;;;;;;;0.70;0.70;;;;;;;;;;5058591;28;20325;-88
2023/06/10 12:46:24;;;;;;;0.70;0.70;;;;;;;;;;5052549;28;20310;-89
2023/06/10 12:48:54;;;;;;;0.60;0.60;;;;;;;;;;5053202;28;20198;-88
2023/06/10 12:51:20;;;;;;;0.60;0.60;;;;;;;;;;5053037;28;20183;-88
2023/06/10 12:53:46;;;;;;;0.50;0.50;;;;;;;;;;5052728;28;20884;-88
2023/06/10 12:56:12;;;;;;;0.50;0.50;;;;;;;;;;5052998;28;20179;-88
2023/06/10 12:58:38;;;;;;;0.55;0.55;;;;;;;;;;5053009;28;20175;-88
2023/06/10 13:01:04;;;;;;;0.50;0.50;;;;;;;;;;5052507;28;20210;-89
2023/06/10 13:03:30;;;;;;;0.40;0.40;;;;;;;;;;5051552;28;20203;-88
2023/06/10 13:05:56;;;;;;;0.70;0.70;;;;;;;;;;5052381;28;20669;-88
2023/06/10 13:08:22;;;;;;;0.60;0.60;;;;;;;;;;5052913;28;20171;-88
2023/06/10 13:10:48;;;;;;;0.60;0.60;;;;;;;;;;5053087;28;20685;-89
2023/06/10 13:13:14;;;;;;;0.50;0.50;;;;;;;;;;5052569;28;20214;-88
2023/06/10 13:15:40;;;;;;;0.60;0.60;;;;;;;;;;5035022;28;20195;-89
2023/06/10 13:18:06;;;;;;;0.40;0.40;;;;;;;;;;5053130;28;20175;-88
2023/06/10 13:20:33;;;;;;;0.60;0.60;;;;;;;;;;5052585;28;20221;-88
2023/06/10 13:22:59;;;;;;;0.50;0.50;;;;;;;;;;5052322;28;20199;-88
2023/06/10 13:25:26;;;;;;;0.50;0.50;;;;;;;;;;5053327;28;20665;-88
2023/06/10 13:27:52;;;;;;;0.60;0.60;;;;;;;;;;5058347;28;20634;-88
2023/06/10 13:30:18;;;;;;;0.50;0.50;;;;;;;;;;5053341;28;20191;-87
2023/06/10 13:32:44;;;;;;;0.40;0.40;;;;;;;;;;5053007;28;20195;-88
2023/06/10 13:35:10;;;;;;;0.50;0.50;;;;;;;;;;5052319;28;20209;-88
2023/06/10 13:37:36;;;;;;;0.50;0.50;;;;;;;;;;5052959;28;20236;-89
2023/06/10 13:40:02;;;;;;;0.40;0.40;;;;;;;;;;5052444;28;20595;-89
2023/06/10 13:42:29;;;;;;;0.40;0.40;;;;;;;;;;5052018;28;20202;-88
2023/06/10 13:44:56;;;;;;;0.60;0.60;;;;;;;;;;5052518;28;20218;-88
2023/06/10 13:47:22;;;;;;;0.60;0.60;;;;;;;;;;5053320;28;20179;-88
2023/06/10 13:49:48;;;;;;;0.40;0.40;;;;;;;;;;5052617;28;20205;-88
2023/06/10 13:52:14;;;;;;;0.57;0.57;;;;;;;;;;5052820;28;20289;-88
2023/06/10 13:54:40;;;;;;;0.50;0.50;;;;;;;;;;5033518;28;20598;-90
2023/06/10 13:57:09;;;;;;;0.50;0.50;;;;;;;;;;5052707;28;20179;-89
2023/06/10 13:59:35;;;;;;;0.40;0.40;;;;;;;;;;5056301;28;20179;-89
2023/06/10 14:02:01;;;;;;;0.50;0.50;;;;;;;;;;5056138;28;20178;-89
2023/06/10 14:04:27;;;;;;;0.50;0.50;;;;;;;;;;5057064;28;20175;-89
2023/06/10 14:06:53;;;;;;;0.40;0.40;;;;;;;;;;5056763;28;20633;-89
2023/06/10 14:09:19;;;;;;;0.40;0.40;;;;;;;;;;5056808;28;20171;-88
2023/06/10 14:11:45;;;;;;;0.40;0.40;;;;;;;;;;5077607;28;20182;-93
2023/06/10 14:14:11;;;;;;;0.50;0.50;;;;;;;;;;5066474;28;20202;-89
2023/06/10 14:16:37;;;;;;;0.40;0.40;;;;;;;;;;5057390;28;20175;-90
2023/06/10 14:19:03;;;;;;;0.40;0.40;;;;;;;;;;5056590;28;20673;-89
2023/06/10 14:21:29;;;;;;;0.40;0.40;;;;;;;;;;5056956;28;20556;-88
2023/06/10 14:23:55;;;;;;;0.43;0.43;;;;;;;;;;5057509;28;20187;-89
2023/06/10 14:26:21;;;;;;;0.50;0.50;;;;;;;;;;5058478;28;20310;-88
2023/06/10 14:28:49;;;;;;;0.60;0.60;;;;;;;;;;5079603;28;20180;-92
2023/06/10 14:31:15;;;;;;;0.33;0.33;;;;;;;;;;5078927;28;20190;-91
2023/06/10 14:33:43;;;;;;;0.60;0.60;;;;;;;;;;5080779;28;20183;-95
2023/06/10 14:36:09;;;;;;;0.50;0.50;;;;;;;;;;5075889;28;20243;-88
2023/06/10 14:38:35;;;;;;;0.40;0.40;;;;;;;;;;5056958;28;20175;-88
2023/06/10 14:41:02;;;;;;;0.40;0.40;;;;;;;;;;5056369;28;20178;-88